sensor_id;sensor_type;location;lat;lon;timestamp;pressure;altitude;pressure_sealevel;temperature;humidity
42125;BME280;27787;44.594;11.046;2023-05-19T00:02:28;101260.91;;;16.21;97.02
42125;BME280;27787;44.594;11.046;2023-05-19T00:05:16;101258.22;;;16.24;96.09
42125;BME280;27787;44.594;11.046;2023-05-19T00:08:01;101251.97;;;16.27;95.82
42125;BME280;27787;44.594;11.046;2023-05-19T00:10:47;101259.09;;;16.25;95.32
42125;BME280;27787;44.594;11.046;2023-05-19T00:13:31;101262.72;;;16.17;95.97
42125;BME280;27787;44.594;11.046;2023-05-19T00:16:16;101257.41;;;16.16;95.96
42125;BME280;27787;44.594;11.046;2023-05-19T00:19:02;101248.50;;;16.14;95.98
42125;BME280;27787;44.594;11.046;2023-05-19T00:21:46;101254.72;;;16.14;95.80
42125;BME280;27787;44.594;11.046;2023-05-19T00:24:30;101249.41;;;16.13;95.46
42125;BME280;27787;44.594;11.046;2023-05-19T00:27:15;101256.56;;;16.09;95.66
42125;BME280;27787;44.594;11.046;2023-05-19T00:29:58;101254.81;;;16.05;95.39
42125;BME280;27787;44.594;11.046;2023-05-19T00:32:43;101245.94;;;16.05;95.62
42125;BME280;27787;44.594;11.046;2023-05-19T00:35:27;101253.03;;;16.01;95.46
42125;BME280;27787;44.594;11.046;2023-05-19T00:38:11;101245.97;;;15.99;95.54
42125;BME280;27787;44.594;11.046;2023-05-19T00:40:55;101244.22;;;15.98;95.97
42125;BME280;27787;44.594;11.046;2023-05-19T00:43:39;101245.97;;;15.97;96.26
42125;BME280;27787;44.594;11.046;2023-05-19T00:46:24;101240.63;;;16.00;95.82
42125;BME280;27787;44.594;11.046;2023-05-19T00:49:08;101233.53;;;16.01;95.59
42125;BME280;27787;44.594;11.046;2023-05-19T00:51:52;101246.84;;;15.99;95.74
42125;BME280;27787;44.594;11.046;2023-05-19T00:54:37;101241.53;;;15.98;95.60
42125;BME280;27787;44.594;11.046;2023-05-19T00:57:21;101239.78;;;15.95;96.26
42125;BME280;27787;44.594;11.046;2023-05-19T01:00:06;101238.94;;;15.93;95.81
42125;BME280;27787;44.594;11.046;2023-05-19T01:02:51;101238.06;;;15.91;96.16
42125;BME280;27787;44.594;11.046;2023-05-19T01:05:40;101241.59;;;15.93;96.21
42125;BME280;27787;44.594;11.046;2023-05-19T01:08:25;101244.25;;;15.93;96.20
42125;BME280;27787;44.594;11.046;2023-05-19T01:11:09;101236.28;;;15.90;96.45
42125;BME280;27787;44.594;11.046;2023-05-19T01:13:54;101231.84;;;15.87;96.76
42125;BME280;27787;44.594;11.046;2023-05-19T01:16:42;101235.44;;;15.82;97.54
42125;BME280;27787;44.594;11.046;2023-05-19T01:31:35;101223.09;;;15.72;99.65
42125;BME280;27787;44.594;11.046;2023-05-19T01:34:22;101227.53;;;15.70;99.50
42125;BME280;27787;44.594;11.046;2023-05-19T01:37:07;101218.69;;;15.68;100.00
42125;BME280;27787;44.594;11.046;2023-05-19T01:39:52;101228.41;;;15.70;100.00
42125;BME280;27787;44.594;11.046;2023-05-19T01:42:39;101220.44;;;15.69;100.00
42125;BME280;27787;44.594;11.046;2023-05-19T01:45:26;101227.56;;;15.68;100.00
42125;BME280;27787;44.594;11.046;2023-05-19T01:48:11;101230.22;;;15.68;100.00
42125;BME280;27787;44.594;11.046;2023-05-19T01:50:56;101228.44;;;15.67;100.00
42125;BME280;27787;44.594;11.046;2023-05-19T01:53:40;101226.69;;;15.66;100.00
42125;BME280;27787;44.594;11.046;2023-05-19T01:57:13;101227.56;;;15.62;100.00
42125;BME280;27787;44.594;11.046;2023-05-19T02:17:54;101227.59;;;15.56;100.00
42125;BME280;27787;44.594;11.046;2023-05-19T02:20:40;101233.78;;;15.58;100.00
42125;BME280;27787;44.594;11.046;2023-05-19T02:23:25;101230.22;;;15.59;100.00
42125;BME280;27787;44.594;11.046;2023-05-19T02:26:09;101232.91;;;15.57;100.00
42125;BME280;27787;44.594;11.046;2023-05-19T02:28:54;101229.34;;;15.57;100.00
42125;BME280;27787;44.594;11.046;2023-05-19T02:31:38;101230.25;;;15.54;100.00
42125;BME280;27787;44.594;11.046;2023-05-19T02:34:23;101232.03;;;15.54;100.00
42125;BME280;27787;44.594;11.046;2023-05-19T02:37:07;101235.63;;;15.50;100.00
42125;BME280;27787;44.594;11.046;2023-05-19T02:39:52;101226.72;;;15.48;100.00
42125;BME280;27787;44.594;11.046;2023-05-19T02:42:36;101232.06;;;15.48;100.00
42125;BME280;27787;44.594;11.046;2023-05-19T02:45:20;101235.59;;;15.48;100.00
42125;BME280;27787;44.594;11.046;2023-05-19T02:48:04;101236.50;;;15.50;100.00
42125;BME280;27787;44.594;11.046;2023-05-19T02:50:49;101231.16;;;15.49;100.00
42125;BME280;27787;44.594;11.046;2023-05-19T02:53:33;101234.69;;;15.49;100.00
42125;BME280;27787;44.594;11.046;2023-05-19T02:56:17;101235.63;;;15.50;100.00
42125;BME280;27787;44.594;11.046;2023-05-19T02:59:01;101232.97;;;15.45;100.00
42125;BME280;27787;44.594;11.046;2023-05-19T03:01:46;101233.88;;;15.40;100.00
42125;BME280;27787;44.594;11.046;2023-05-19T03:04:30;101225.91;;;15.38;100.00
42125;BME280;27787;44.594;11.046;2023-05-19T03:07:15;101228.59;;;15.30;100.00
42125;BME280;27787;44.594;11.046;2023-05-19T03:09:59;101232.16;;;15.22;100.00
42125;BME280;27787;44.594;11.046;2023-05-19T03:12:46;101226.00;;;15.17;100.00
42125;BME280;27787;44.594;11.046;2023-05-19T03:15:30;101227.75;;;15.21;100.00
42125;BME280;27787;44.594;11.046;2023-05-19T03:18:15;101227.75;;;15.21;100.00
42125;BME280;27787;44.594;11.046;2023-05-19T03:21:00;101230.44;;;15.18;100.00
42125;BME280;27787;44.594;11.046;2023-05-19T03:23:44;101225.16;;;15.12;100.00
42125;BME280;27787;44.594;11.046;2023-05-19T03:26:30;101226.06;;;15.01;100.00
42125;BME280;27787;44.594;11.046;2023-05-19T03:29:14;101234.06;;;14.92;100.00
42125;BME280;27787;44.594;11.046;2023-05-19T03:31:59;101237.63;;;14.87;100.00
42125;BME280;27787;44.594;11.046;2023-05-19T03:34:44;101237.63;;;14.84;100.00
42125;BME280;27787;44.594;11.046;2023-05-19T03:37:29;101237.63;;;14.82;100.00
42125;BME280;27787;44.594;11.046;2023-05-19T03:40:13;101235.84;;;14.81;100.00
42125;BME280;27787;44.594;11.046;2023-05-19T03:43:01;101242.94;;;14.81;100.00
42125;BME280;27787;44.594;11.046;2023-05-19T03:45:45;101247.41;;;14.75;100.00
42125;BME280;27787;44.594;11.046;2023-05-19T03:48:49;101244.75;;;14.68;100.00
42125;BME280;27787;44.594;11.046;2023-05-19T03:51:37;101247.41;;;14.63;100.00
42125;BME280;27787;44.594;11.046;2023-05-19T03:54:34;101246.50;;;14.67;100.00
42125;BME280;27787;44.594;11.046;2023-05-19T03:57:19;101247.41;;;14.72;100.00
42125;BME280;27787;44.594;11.046;2023-05-19T04:00:05;101242.97;;;14.73;100.00
42125;BME280;27787;44.594;11.046;2023-05-19T04:02:55;101248.28;;;14.78;100.00
42125;BME280;27787;44.594;11.046;2023-05-19T04:05:40;101250.91;;;14.82;100.00
42125;BME280;27787;44.594;11.046;2023-05-19T04:08:24;101254.47;;;14.86;100.00
42125;BME280;27787;44.594;11.046;2023-05-19T04:11:09;101256.19;;;14.94;100.00
42125;BME280;27787;44.594;11.046;2023-05-19T04:13:53;101263.28;;;15.00;100.00
42125;BME280;27787;44.594;11.046;2023-05-19T04:16:37;101257.94;;;15.08;100.00
42125;BME280;27787;44.594;11.046;2023-05-19T04:19:21;101257.94;;;15.12;100.00
42125;BME280;27787;44.594;11.046;2023-05-19T04:22:06;101255.25;;;15.15;100.00
42125;BME280;27787;44.594;11.046;2023-05-19T04:24:50;101257.00;;;15.21;100.00
42125;BME280;27787;44.594;11.046;2023-05-19T04:27:35;101262.31;;;15.28;100.00
42125;BME280;27787;44.594;11.046;2023-05-19T04:30:23;101260.50;;;15.32;100.00
42125;BME280;27787;44.594;11.046;2023-05-19T04:33:08;101255.19;;;15.33;100.00
42125;BME280;27787;44.594;11.046;2023-05-19T04:35:53;101264.06;;;15.37;100.00
42125;BME280;27787;44.594;11.046;2023-05-19T04:38:37;101263.16;;;15.41;100.00
42125;BME280;27787;44.594;11.046;2023-05-19T04:41:24;101262.22;;;15.44;100.00
42125;BME280;27787;44.594;11.046;2023-05-19T04:44:08;101263.97;;;15.48;100.00
42125;BME280;27787;44.594;11.046;2023-05-19T04:46:53;101271.97;;;15.52;100.00
42125;BME280;27787;44.594;11.046;2023-05-19T04:49:39;101269.28;;;15.54;100.00
42125;BME280;27787;44.594;11.046;2023-05-19T04:52:23;101275.50;;;15.54;100.00
42125;BME280;27787;44.594;11.046;2023-05-19T04:55:08;101272.81;;;15.56;100.00
42125;BME280;27787;44.594;11.046;2023-05-19T04:57:55;101278.16;;;15.54;100.00
42125;BME280;27787;44.594;11.046;2023-05-19T05:00:40;101281.72;;;15.52;100.00
42125;BME280;27787;44.594;11.046;2023-05-19T05:03:25;101278.19;;;15.47;100.00
42125;BME280;27787;44.594;11.046;2023-05-19T05:06:09;101286.16;;;15.45;100.00
42125;BME280;27787;44.594;11.046;2023-05-19T05:11:40;101287.94;;;15.46;100.00
42125;BME280;27787;44.594;11.046;2023-05-19T05:14:26;101287.03;;;15.47;100.00
42125;BME280;27787;44.594;11.046;2023-05-19T05:17:11;101289.72;;;15.50;100.00
42125;BME280;27787;44.594;11.046;2023-05-19T05:19:56;101287.03;;;15.55;100.00
42125;BME280;27787;44.594;11.046;2023-05-19T05:22:41;101291.44;;;15.57;100.00
42125;BME280;27787;44.594;11.046;2023-05-19T05:25:26;101291.44;;;15.62;100.00
42125;BME280;27787;44.594;11.046;2023-05-19T05:28:10;101305.66;;;15.62;100.00
42125;BME280;27787;44.594;11.046;2023-05-19T05:30:55;101292.34;;;15.59;100.00
42125;BME280;27787;44.594;11.046;2023-05-19T05:33:41;101293.22;;;15.55;100.00
42125;BME280;27787;44.594;11.046;2023-05-19T05:36:27;101297.69;;;15.53;100.00
42125;BME280;27787;44.594;11.046;2023-05-19T05:39:11;101296.78;;;15.54;100.00
42125;BME280;27787;44.594;11.046;2023-05-19T05:45:07;101296.75;;;15.57;100.00
42125;BME280;27787;44.594;11.046;2023-05-19T05:47:53;101286.13;;;15.57;100.00
42125;BME280;27787;44.594;11.046;2023-05-19T05:50:37;101297.66;;;15.59;100.00
42125;BME280;27787;44.594;11.046;2023-05-19T05:53:23;101301.22;;;15.63;100.00
42125;BME280;27787;44.594;11.046;2023-05-19T05:56:10;101303.88;;;15.65;100.00
42125;BME280;27787;44.594;11.046;2023-05-19T05:59:02;101303.88;;;15.65;100.00
42125;BME280;27787;44.594;11.046;2023-05-19T06:01:46;101304.78;;;15.63;100.00
42125;BME280;27787;44.594;11.046;2023-05-19T06:04:33;101307.44;;;15.63;100.00
42125;BME280;27787;44.594;11.046;2023-05-19T06:07:17;101309.22;;;15.63;100.00
42125;BME280;27787;44.594;11.046;2023-05-19T06:10:02;101317.16;;;15.61;100.00
42125;BME280;27787;44.594;11.046;2023-05-19T06:12:47;101312.75;;;15.60;100.00
42125;BME280;27787;44.594;11.046;2023-05-19T06:15:32;101307.41;;;15.57;100.00
42125;BME280;27787;44.594;11.046;2023-05-19T06:18:20;101316.28;;;15.58;100.00
42125;BME280;27787;44.594;11.046;2023-05-19T06:21:05;101321.63;;;15.55;100.00
42125;BME280;27787;44.594;11.046;2023-05-19T06:23:50;101326.03;;;15.59;100.00
42125;BME280;27787;44.594;11.046;2023-05-19T06:26:35;101320.72;;;15.59;100.00
42125;BME280;27787;44.594;11.046;2023-05-19T06:29:19;101320.72;;;15.56;100.00
42125;BME280;27787;44.594;11.046;2023-05-19T06:32:07;101317.19;;;15.55;100.00
42125;BME280;27787;44.594;11.046;2023-05-19T06:34:53;101318.94;;;15.56;100.00
42125;BME280;27787;44.594;11.046;2023-05-19T06:37:38;101318.09;;;15.53;100.00
42125;BME280;27787;44.594;11.046;2023-05-19T06:40:22;101315.47;;;15.42;100.00
42125;BME280;27787;44.594;11.046;2023-05-19T06:43:06;101320.81;;;15.31;100.00
42125;BME280;27787;44.594;11.046;2023-05-19T06:46:17;101319.94;;;15.28;100.00
42125;BME280;27787;44.594;11.046;2023-05-19T06:49:03;101322.59;;;15.31;100.00
42125;BME280;27787;44.594;11.046;2023-05-19T06:51:52;101327.91;;;15.31;100.00
42125;BME280;27787;44.594;11.046;2023-05-19T06:54:38;101321.72;;;15.29;100.00
42125;BME280;27787;44.594;11.046;2023-05-19T06:57:22;101323.47;;;15.30;100.00
42125;BME280;27787;44.594;11.046;2023-05-19T07:00:07;101319.91;;;15.37;100.00
42125;BME280;27787;44.594;11.046;2023-05-19T07:02:55;101319.91;;;15.39;100.00
42125;BME280;27787;44.594;11.046;2023-05-19T07:05:39;101325.19;;;15.45;100.00
42125;BME280;27787;44.594;11.046;2023-05-19T07:08:23;101327.00;;;15.38;100.00
42125;BME280;27787;44.594;11.046;2023-05-19T07:11:07;101327.91;;;15.37;100.00
42125;BME280;27787;44.594;11.046;2023-05-19T07:13:52;101321.69;;;15.40;100.00
42125;BME280;27787;44.594;11.046;2023-05-19T07:16:42;101326.13;;;15.41;100.00
42125;BME280;27787;44.594;11.046;2023-05-19T07:19:26;101322.56;;;15.40;100.00
42125;BME280;27787;44.594;11.046;2023-05-19T07:22:11;101331.41;;;15.42;100.00
42125;BME280;27787;44.594;11.046;2023-05-19T07:24:55;101326.97;;;15.43;100.00
42125;BME280;27787;44.594;11.046;2023-05-19T07:27:40;101332.28;;;15.47;100.00
42125;BME280;27787;44.594;11.046;2023-05-19T07:30:26;101325.25;;;15.37;100.00
42125;BME280;27787;44.594;11.046;2023-05-19T07:33:11;101327.91;;;15.29;100.00
42125;BME280;27787;44.594;11.046;2023-05-19T07:35:56;101320.81;;;15.30;100.00
42125;BME280;27787;44.594;11.046;2023-05-19T07:38:40;101328.78;;;15.39;100.00
42125;BME280;27787;44.594;11.046;2023-05-19T07:41:26;101323.41;;;15.54;100.00
42125;BME280;27787;44.594;11.046;2023-05-19T07:44:12;101318.06;;;15.65;100.00
42125;BME280;27787;44.594;11.046;2023-05-19T07:46:57;101327.81;;;15.61;100.00
42125;BME280;27787;44.594;11.046;2023-05-19T07:49:43;101327.81;;;15.66;100.00
42125;BME280;27787;44.594;11.046;2023-05-19T07:52:27;101330.47;;;15.68;100.00
42125;BME280;27787;44.594;11.046;2023-05-19T07:55:11;101329.59;;;15.67;100.00
42125;BME280;27787;44.594;11.046;2023-05-19T07:57:56;101330.47;;;15.68;100.00
42125;BME280;27787;44.594;11.046;2023-05-19T08:00:40;101338.47;;;15.65;100.00
42125;BME280;27787;44.594;11.046;2023-05-19T08:03:28;101330.47;;;15.55;100.00
42125;BME280;27787;44.594;11.046;2023-05-19T08:06:14;101326.97;;;15.52;99.00
42125;BME280;27787;44.594;11.046;2023-05-19T08:08:59;101326.03;;;15.56;98.69
42125;BME280;27787;44.594;11.046;2023-05-19T08:11:44;101325.16;;;15.55;99.15
42125;BME280;27787;44.594;11.046;2023-05-19T08:14:32;101329.59;;;15.53;99.91
42125;BME280;27787;44.594;11.046;2023-05-19T08:17:17;101332.25;;;15.56;100.00
42125;BME280;27787;44.594;11.046;2023-05-19T08:20:03;101325.16;;;15.61;100.00
42125;BME280;27787;44.594;11.046;2023-05-19T08:22:52;101329.59;;;15.64;100.00
42125;BME280;27787;44.594;11.046;2023-05-19T08:25:37;101332.25;;;15.69;100.00
42125;BME280;27787;44.594;11.046;2023-05-19T08:28:23;101335.72;;;15.81;100.00
42125;BME280;27787;44.594;11.046;2023-05-19T08:31:07;101333.91;;;15.91;100.00
42125;BME280;27787;44.594;11.046;2023-05-19T08:33:52;101331.22;;;15.96;100.00
42125;BME280;27787;44.594;11.046;2023-05-19T08:36:36;101338.31;;;15.97;100.00
42125;BME280;27787;44.594;11.046;2023-05-19T08:39:20;101332.94;;;16.04;100.00
42125;BME280;27787;44.594;11.046;2023-05-19T08:42:10;101340.94;;;16.03;100.00
42125;BME280;27787;44.594;11.046;2023-05-19T08:44:56;101338.22;;;16.09;100.00
42125;BME280;27787;44.594;11.046;2023-05-19T08:47:44;101333.75;;;16.18;100.00
42125;BME280;27787;44.594;11.046;2023-05-19T08:50:30;101331.91;;;16.30;100.00
42125;BME280;27787;44.594;11.046;2023-05-19T08:53:22;101333.59;;;16.37;100.00
42125;BME280;27787;44.594;11.046;2023-05-19T08:56:13;101339.75;;;16.46;100.00
42125;BME280;27787;44.594;11.046;2023-05-19T08:58:58;101335.25;;;16.51;100.00
42125;BME280;27787;44.594;11.046;2023-05-19T09:01:46;101339.72;;;16.51;100.00
42125;BME280;27787;44.594;11.046;2023-05-19T09:04:30;101330.81;;;16.55;100.00
42125;BME280;27787;44.594;11.046;2023-05-19T09:07:15;101340.50;;;16.64;100.00
42125;BME280;27787;44.594;11.046;2023-05-19T09:10:01;101336.94;;;16.69;100.00
42125;BME280;27787;44.594;11.046;2023-05-19T09:12:46;101339.59;;;16.72;100.00
42125;BME280;27787;44.594;11.046;2023-05-19T09:15:31;101337.81;;;16.71;100.00
42125;BME280;27787;44.594;11.046;2023-05-19T09:18:19;101336.97;;;16.68;100.00
42125;BME280;27787;44.594;11.046;2023-05-19T09:21:04;101333.34;;;16.73;100.00
42125;BME280;27787;44.594;11.046;2023-05-19T09:23:50;101335.09;;;16.76;100.00
42125;BME280;27787;44.594;11.046;2023-05-19T09:26:36;101329.78;;;16.74;100.00
42125;BME280;27787;44.594;11.046;2023-05-19T09:29:21;101324.47;;;16.71;100.00
42125;BME280;27787;44.594;11.046;2023-05-19T09:32:06;101327.16;;;16.67;100.00
42125;BME280;27787;44.594;11.046;2023-05-19T09:34:52;101319.16;;;16.65;100.00
42125;BME280;27787;44.594;11.046;2023-05-19T09:37:43;101319.22;;;16.59;100.00
42125;BME280;27787;44.594;11.046;2023-05-19T09:40:33;101323.66;;;16.60;100.00
42125;BME280;27787;44.594;11.046;2023-05-19T09:43:26;101317.47;;;16.57;100.00
42125;BME280;27787;44.594;11.046;2023-05-19T09:46:48;101314.78;;;16.60;100.00
42125;BME280;27787;44.594;11.046;2023-05-19T09:49:46;101317.41;;;16.63;100.00
42125;BME280;27787;44.594;11.046;2023-05-19T09:52:37;101320.09;;;16.67;100.00
42125;BME280;27787;44.594;11.046;2023-05-19T09:55:55;101314.72;;;16.70;100.00
42125;BME280;27787;44.594;11.046;2023-05-19T09:58:41;101314.66;;;16.75;100.00
42125;BME280;27787;44.594;11.046;2023-05-19T10:01:25;101312.88;;;16.75;100.00
42125;BME280;27787;44.594;11.046;2023-05-19T10:04:10;101311.97;;;16.76;100.00
42125;BME280;27787;44.594;11.046;2023-05-19T10:06:56;101317.34;;;16.73;100.00
42125;BME280;27787;44.594;11.046;2023-05-19T10:09:44;101312.94;;;16.71;100.00
42125;BME280;27787;44.594;11.046;2023-05-19T10:12:30;101313.81;;;16.65;100.00
42125;BME280;27787;44.594;11.046;2023-05-19T10:15:16;101304.09;;;16.61;100.00
42125;BME280;27787;44.594;11.046;2023-05-19T10:18:02;101312.13;;;16.57;100.00
42125;BME280;27787;44.594;11.046;2023-05-19T10:20:47;101311.28;;;16.51;100.00
42125;BME280;27787;44.594;11.046;2023-05-19T10:23:33;101309.53;;;16.49;100.00
42125;BME280;27787;44.594;11.046;2023-05-19T10:26:18;101305.06;;;16.51;100.00
42125;BME280;27787;44.594;11.046;2023-05-19T10:29:03;101299.75;;;16.49;100.00
42125;BME280;27787;44.594;11.046;2023-05-19T10:31:49;101300.69;;;16.44;100.00
42125;BME280;27787;44.594;11.046;2023-05-19T10:40:23;101304.25;;;16.44;100.00
42125;BME280;27787;44.594;11.046;2023-05-19T10:43:21;101301.56;;;16.46;100.00
42125;BME280;27787;44.594;11.046;2023-05-19T10:46:08;101308.69;;;16.44;100.00
42125;BME280;27787;44.594;11.046;2023-05-19T10:48:52;101309.56;;;16.44;100.00
42125;BME280;27787;44.594;11.046;2023-05-19T10:51:37;101303.34;;;16.45;100.00
42125;BME280;27787;44.594;11.046;2023-05-19T10:54:41;101302.41;;;16.51;100.00
42125;BME280;27787;44.594;11.046;2023-05-19T10:57:26;101301.47;;;16.57;100.00
42125;BME280;27787;44.594;11.046;2023-05-19T11:00:29;101298.81;;;16.53;100.00
42125;BME280;27787;44.594;11.046;2023-05-19T11:03:16;101308.63;;;16.50;100.00
42125;BME280;27787;44.594;11.046;2023-05-19T11:06:26;101304.16;;;16.53;100.00
42125;BME280;27787;44.594;11.046;2023-05-19T11:09:14;101308.59;;;16.56;100.00
42125;BME280;27787;44.594;11.046;2023-05-19T11:12:02;101306.75;;;16.61;100.00
42125;BME280;27787;44.594;11.046;2023-05-19T11:14:47;101306.75;;;16.63;100.00
42125;BME280;27787;44.594;11.046;2023-05-19T11:17:33;101298.72;;;16.64;100.00
42125;BME280;27787;44.594;11.046;2023-05-19T11:20:28;101305.88;;;16.61;100.00
42125;BME280;27787;44.594;11.046;2023-05-19T11:23:15;101300.53;;;16.61;100.00
42125;BME280;27787;44.594;11.046;2023-05-19T11:26:01;101297.88;;;16.62;100.00
42125;BME280;27787;44.594;11.046;2023-05-19T11:28:46;101304.94;;;16.66;100.00
42125;BME280;27787;44.594;11.046;2023-05-19T11:31:31;101299.63;;;16.63;100.00
42125;BME280;27787;44.594;11.046;2023-05-19T11:34:18;101297.88;;;16.61;100.00
42125;BME280;27787;44.594;11.046;2023-05-19T11:37:03;101296.09;;;16.61;100.00
42125;BME280;27787;44.594;11.046;2023-05-19T11:39:48;101299.63;;;16.63;100.00
42125;BME280;27787;44.594;11.046;2023-05-19T11:42:33;101300.50;;;16.65;100.00
42125;BME280;27787;44.594;11.046;2023-05-19T11:45:22;101296.09;;;16.67;100.00
42125;BME280;27787;44.594;11.046;2023-05-19T11:48:11;101291.59;;;16.66;100.00
42125;BME280;27787;44.594;11.046;2023-05-19T11:50:55;101287.19;;;16.68;100.00
42125;BME280;27787;44.594;11.046;2023-05-19T11:53:40;101283.63;;;16.69;100.00
42125;BME280;27787;44.594;11.046;2023-05-19T11:56:24;101285.44;;;16.67;100.00
42125;BME280;27787;44.594;11.046;2023-05-19T11:59:09;101281.88;;;16.62;100.00
42125;BME280;27787;44.594;11.046;2023-05-19T12:01:53;101274.78;;;16.61;100.00
42125;BME280;27787;44.594;11.046;2023-05-19T12:04:37;101286.28;;;16.65;100.00
42125;BME280;27787;44.594;11.046;2023-05-19T12:07:23;101274.75;;;16.67;100.00
42125;BME280;27787;44.594;11.046;2023-05-19T12:10:07;101278.25;;;16.72;100.00
42125;BME280;27787;44.594;11.046;2023-05-19T12:12:53;101273.78;;;16.76;100.00
42125;BME280;27787;44.594;11.046;2023-05-19T12:15:37;101284.47;;;16.74;100.00
42125;BME280;27787;44.594;11.046;2023-05-19T12:18:21;101274.66;;;16.75;100.00
42125;BME280;27787;44.594;11.046;2023-05-19T12:21:05;101281.78;;;16.74;100.00
42125;BME280;27787;44.594;11.046;2023-05-19T12:23:51;101276.50;;;16.71;100.00
42125;BME280;27787;44.594;11.046;2023-05-19T12:26:35;101275.63;;;16.69;100.00
42125;BME280;27787;44.594;11.046;2023-05-19T12:29:20;101270.31;;;16.69;100.00
42125;BME280;27787;44.594;11.046;2023-05-19T12:32:06;101265.84;;;16.71;100.00
42125;BME280;27787;44.594;11.046;2023-05-19T12:34:51;101272.97;;;16.69;100.00
42125;BME280;27787;44.594;11.046;2023-05-19T12:37:40;101265.84;;;16.71;100.00
42125;BME280;27787;44.594;11.046;2023-05-19T12:40:24;101272.97;;;16.69;100.00
42125;BME280;27787;44.594;11.046;2023-05-19T12:43:19;101268.53;;;16.68;100.00
42125;BME280;27787;44.594;11.046;2023-05-19T12:46:11;101258.78;;;16.67;100.00
42125;BME280;27787;44.594;11.046;2023-05-19T12:48:58;101263.19;;;16.68;100.00
42125;BME280;27787;44.594;11.046;2023-05-19T12:51:51;101266.72;;;16.72;100.00
42125;BME280;27787;44.594;11.046;2023-05-19T12:54:35;101255.16;;;16.71;100.00
42125;BME280;27787;44.594;11.046;2023-05-19T12:57:19;101257.91;;;16.61;100.00
42125;BME280;27787;44.594;11.046;2023-05-19T13:03:05;101261.59;;;16.46;100.00
42125;BME280;27787;44.594;11.046;2023-05-19T13:05:50;101258.97;;;16.43;100.00
42125;BME280;27787;44.594;11.046;2023-05-19T13:08:35;101252.75;;;16.41;100.00
42125;BME280;27787;44.594;11.046;2023-05-19T13:11:19;101258.94;;;16.44;100.00
42125;BME280;27787;44.594;11.046;2023-05-19T13:14:03;101259.81;;;16.46;100.00
42125;BME280;27787;44.594;11.046;2023-05-19T13:16:47;101250.94;;;16.44;100.00
42125;BME280;27787;44.594;11.046;2023-05-19T13:19:31;101257.13;;;16.48;100.00
42125;BME280;27787;44.594;11.046;2023-05-19T13:22:15;101259.78;;;16.48;100.00
42125;BME280;27787;44.594;11.046;2023-05-19T13:25:00;101256.25;;;16.46;100.00
42125;BME280;27787;44.594;11.046;2023-05-19T13:27:46;101247.34;;;16.48;100.00
42125;BME280;27787;44.594;11.046;2023-05-19T13:30:31;101250.84;;;16.55;100.00
42125;BME280;27787;44.594;11.046;2023-05-19T13:33:15;101257.06;;;16.57;100.00
42125;BME280;27787;44.594;11.046;2023-05-19T13:36:00;101248.19;;;16.55;100.00
42125;BME280;27787;44.594;11.046;2023-05-19T13:38:44;101241.03;;;16.60;100.00
42125;BME280;27787;44.594;11.046;2023-05-19T13:41:28;101239.19;;;16.64;100.00
42125;BME280;27787;44.594;11.046;2023-05-19T13:44:12;101235.63;;;16.66;100.00
42125;BME280;27787;44.594;11.046;2023-05-19T13:46:58;101242.69;;;16.73;100.00
42125;BME280;27787;44.594;11.046;2023-05-19T13:49:41;101244.41;;;16.79;100.00
42125;BME280;27787;44.594;11.046;2023-05-19T13:52:25;101238.09;;;16.88;100.00
42125;BME280;27787;44.594;11.046;2023-05-19T13:55:09;101232.59;;;17.01;100.00
42125;BME280;27787;44.594;11.046;2023-05-19T13:57:53;101228.13;;;17.05;100.00
42125;BME280;27787;44.594;11.046;2023-05-19T14:00:38;101240.53;;;17.09;100.00
42125;BME280;27787;44.594;11.046;2023-05-19T14:03:22;101233.34;;;17.14;100.00
42125;BME280;27787;44.594;11.046;2023-05-19T14:06:07;101235.06;;;17.21;100.00
42125;BME280;27787;44.594;11.046;2023-05-19T14:08:52;101222.63;;;17.20;100.00
42125;BME280;27787;44.594;11.046;2023-05-19T14:11:36;101215.56;;;17.15;100.00
42125;BME280;27787;44.594;11.046;2023-05-19T14:14:20;101216.44;;;17.15;100.00
42125;BME280;27787;44.594;11.046;2023-05-19T14:17:05;101218.22;;;17.15;100.00
42125;BME280;27787;44.594;11.046;2023-05-19T14:19:49;101215.53;;;17.19;100.00
42125;BME280;27787;44.594;11.046;2023-05-19T14:22:33;101208.34;;;17.23;100.00
42125;BME280;27787;44.594;11.046;2023-05-19T14:25:18;101205.59;;;17.27;100.00
42125;BME280;27787;44.594;11.046;2023-05-19T14:28:02;101189.66;;;17.24;100.00
42125;BME280;27787;44.594;11.046;2023-05-19T14:30:46;101186.06;;;17.25;100.00
42125;BME280;27787;44.594;11.046;2023-05-19T14:33:31;101201.13;;;17.29;100.00
42125;BME280;27787;44.594;11.046;2023-05-19T14:36:15;101199.38;;;17.28;100.00
42125;BME280;27787;44.594;11.046;2023-05-19T14:39:00;101196.69;;;17.28;100.00
42125;BME280;27787;44.594;11.046;2023-05-19T14:41:45;101200.28;;;17.27;100.00
42125;BME280;27787;44.594;11.046;2023-05-19T14:44:30;101198.59;;;17.22;100.00
42125;BME280;27787;44.594;11.046;2023-05-19T14:47:15;101198.59;;;17.19;100.00
42125;BME280;27787;44.594;11.046;2023-05-19T14:49:59;101193.25;;;17.19;100.00
42125;BME280;27787;44.594;11.046;2023-05-19T14:52:44;101195.06;;;17.17;100.00